createdAt,value
2023-04-19T00:01:16.939Z,4.80
2023-04-19T00:03:43.592Z,4.40
2023-04-19T00:06:10.294Z,4.50
2023-04-19T00:08:36.699Z,4.43
2023-04-19T00:11:03.146Z,4.57
2023-04-19T00:13:29.537Z,4.30
2023-04-19T00:15:55.887Z,4.77
2023-04-19T00:18:22.280Z,3.97
2023-04-19T00:20:48.798Z,4.90
2023-04-19T00:23:15.291Z,4.73
2023-04-19T00:25:41.734Z,4.73
2023-04-19T00:28:08.187Z,4.80
2023-04-19T00:30:34.669Z,4.80
2023-04-19T00:33:01.324Z,4.63
2023-04-19T00:35:27.766Z,4.93
2023-04-19T00:37:54.239Z,4.67
2023-04-19T00:40:20.678Z,5.00
2023-04-19T00:42:47.082Z,5.07
2023-04-19T00:45:14.473Z,5.00
2023-04-19T00:47:41.350Z,4.90
2023-04-19T00:50:08.390Z,4.77
2023-04-19T00:52:34.886Z,4.97
2023-04-19T00:55:01.567Z,5.40
2023-04-19T00:57:28.532Z,5.33
2023-04-19T00:59:55.453Z,4.97
2023-04-19T01:02:22.379Z,4.60
2023-04-19T01:04:49.016Z,5.57
2023-04-19T01:07:15.569Z,5.00
2023-04-19T01:09:43.872Z,4.80
2023-04-19T01:12:10.295Z,4.93
2023-04-19T01:14:36.660Z,5.30
2023-04-19T01:17:03.050Z,5.53
2023-04-19T01:19:29.529Z,4.97
2023-04-19T01:21:58.235Z,5.40
2023-04-19T01:24:24.662Z,5.13
2023-04-19T01:26:51.301Z,5.67
2023-04-19T01:29:18.721Z,5.33
2023-04-19T01:31:49.161Z,5.63
2023-04-19T03:04:40.001Z,7.50
2023-04-19T03:07:06.868Z,7.23
2023-04-19T03:09:33.291Z,7.80
2023-04-19T03:11:59.684Z,7.83
2023-04-19T03:14:26.150Z,7.83
2023-04-19T03:24:13.128Z,7.77
2023-04-19T03:26:39.609Z,7.57
2023-04-19T03:29:06.130Z,7.37
2023-04-19T03:31:32.831Z,7.17
2023-04-19T03:33:59.314Z,7.80
2023-04-19T03:36:26.829Z,7.03
2023-04-19T03:38:53.223Z,7.60
2023-04-19T03:41:20.804Z,6.93
2023-04-19T03:43:47.567Z,6.90
2023-04-19T03:46:13.943Z,6.73
2023-04-19T03:48:40.733Z,7.37
2023-04-19T03:51:07.454Z,7.40
2023-04-19T03:53:33.975Z,6.73
2023-04-19T03:56:00.846Z,7.17
2023-04-19T03:58:27.287Z,6.80
2023-04-19T04:00:53.658Z,7.67
2023-04-19T04:03:20.506Z,7.20
2023-04-19T04:05:47.058Z,6.97
2023-04-19T04:08:14.045Z,7.20
2023-04-19T04:10:40.450Z,6.50
2023-04-19T04:13:06.864Z,6.90
2023-04-19T04:15:33.485Z,6.80
2023-04-19T04:17:59.940Z,7.30
2023-04-19T04:20:26.450Z,7.23
2023-04-19T04:22:52.901Z,7.07
2023-04-19T04:25:21.200Z,7.50
2023-04-19T04:27:51.964Z,7.97
2023-04-19T04:30:18.435Z,7.17
2023-04-19T04:32:46.936Z,7.27
2023-04-19T04:35:13.389Z,7.03
2023-04-19T04:37:40.318Z,7.30
2023-04-19T04:40:08.100Z,7.10
2023-04-19T04:42:35.541Z,7.17
2023-04-19T04:45:02.131Z,7.03
2023-04-19T04:47:32.520Z,7.93
2023-04-19T04:49:59.725Z,6.63
2023-04-19T04:52:26.209Z,7.07
2023-04-19T04:54:52.705Z,7.03
2023-04-19T04:57:19.622Z,7.43
2023-04-19T04:59:48.972Z,6.93
2023-04-19T05:02:15.718Z,6.97
2023-04-19T05:04:42.695Z,6.80
2023-04-19T05:07:09.513Z,6.77
2023-04-19T05:09:35.990Z,6.87
2023-04-19T05:12:02.653Z,7.17
2023-04-19T05:14:29.090Z,7.30
2023-04-19T05:16:55.451Z,7.00
2023-04-19T05:19:21.962Z,6.03
2023-04-19T05:21:48.469Z,7.60
2023-04-19T05:24:15.235Z,7.10
2023-04-19T05:26:41.842Z,6.80
2023-04-19T05:29:08.299Z,7.20
2023-04-19T05:31:34.769Z,6.50
2023-04-19T05:34:01.270Z,6.90
2023-04-19T05:36:28.328Z,6.67
2023-04-19T05:38:54.900Z,6.80
2023-04-19T05:41:21.370Z,6.90
2023-04-19T05:43:47.980Z,6.80
2023-04-19T05:46:14.445Z,7.53
2023-04-19T05:48:40.883Z,7.57
2023-04-19T05:51:07.238Z,7.33
2023-04-19T05:53:33.630Z,6.27
2023-04-19T05:56:00.185Z,6.17
2023-04-19T05:58:27.205Z,7.13
2023-04-19T06:00:53.707Z,6.67
2023-04-19T06:03:20.394Z,7.03
2023-04-19T06:05:47.058Z,6.17
2023-04-19T06:08:16.412Z,7.07
2023-04-19T06:10:53.202Z,5.80
2023-04-19T06:13:22.489Z,5.73
2023-04-19T06:15:49.135Z,6.20
2023-04-19T06:18:19.710Z,5.70
2023-04-19T06:20:46.776Z,5.57
2023-04-19T06:23:14.704Z,5.70
2023-04-19T06:25:41.237Z,6.17
2023-04-19T06:28:07.703Z,5.67
2023-04-19T06:30:34.186Z,6.57
2023-04-19T06:33:00.936Z,5.40
2023-04-19T06:35:27.685Z,5.80
2023-04-19T06:37:54.176Z,5.53
2023-04-19T06:40:20.825Z,5.67
2023-04-19T06:42:47.202Z,5.10
2023-04-19T06:45:15.121Z,4.90
2023-04-19T06:47:41.790Z,4.70
2023-04-19T06:50:08.891Z,4.90
2023-04-19T06:52:35.317Z,3.90
2023-04-19T06:55:01.741Z,4.50
2023-04-19T06:57:28.138Z,3.63
2023-04-19T06:59:55.195Z,3.70
2023-04-19T07:02:21.989Z,3.80
2023-04-19T07:04:48.682Z,3.90
2023-04-19T07:07:15.185Z,3.63
2023-04-19T07:09:41.603Z,3.87
2023-04-19T07:12:08.109Z,4.13
2023-04-19T07:14:34.512Z,4.03
2023-04-19T07:17:00.949Z,3.93
2023-04-19T07:19:29.006Z,3.80
2023-04-19T07:21:55.581Z,3.37
2023-04-19T07:24:22.296Z,3.70
2023-04-19T07:26:48.704Z,3.33
2023-04-19T07:29:15.180Z,3.50
2023-04-19T07:31:42.055Z,2.93
2023-04-19T07:34:08.903Z,3.80
2023-04-19T07:36:36.944Z,3.27
2023-04-19T07:39:04.764Z,3.00
2023-04-19T07:41:32.339Z,2.80
2023-04-19T07:43:58.806Z,3.23
2023-04-19T07:46:25.407Z,2.80
2023-04-19T07:48:51.981Z,2.80
2023-04-19T07:51:19.342Z,2.70
2023-04-19T07:53:47.647Z,2.60
2023-04-19T07:56:15.721Z,2.70
2023-04-19T07:58:42.322Z,3.10
2023-04-19T08:01:09.408Z,2.70
2023-04-19T08:03:36.899Z,2.97
2023-04-19T08:06:05.547Z,3.13
2023-04-19T08:08:33.993Z,2.40
2023-04-19T08:11:02.317Z,2.80
2023-04-19T08:13:29.542Z,2.47
2023-04-19T08:18:25.521Z,2.33
2023-04-19T08:20:52.005Z,2.80
2023-04-19T08:23:24.165Z,2.30
2023-04-19T08:25:52.344Z,1.93
2023-04-19T08:28:19.161Z,1.70
2023-04-19T08:30:45.695Z,1.50
2023-04-19T08:33:12.729Z,1.50
2023-04-19T08:35:41.336Z,1.60
2023-04-19T08:38:08.560Z,1.43
2023-04-19T09:06:48.240Z,1.73
2023-04-19T09:09:33.158Z,1.73
2023-04-19T09:12:02.208Z,1.67
2023-04-19T09:14:29.176Z,1.50
2023-04-19T10:07:50.333Z,1.70
2023-04-19T10:10:20.790Z,1.60
2023-04-19T10:15:22.121Z,1.20
2023-04-19T10:17:48.904Z,1.47
2023-04-19T10:20:21.770Z,1.50
2023-04-19T10:22:48.909Z,1.47
2023-04-19T10:25:16.864Z,1.60
2023-04-19T10:27:48.940Z,1.57
2023-04-19T10:30:20.606Z,1.43
2023-04-19T10:32:53.387Z,1.80
2023-04-19T10:35:24.647Z,1.70
2023-04-19T10:38:07.025Z,1.67
2023-04-19T10:40:59.028Z,1.40
2023-04-19T10:43:26.740Z,1.70
2023-04-19T10:45:53.450Z,1.40
2023-04-19T10:48:35.475Z,1.50
2023-04-19T10:51:19.045Z,1.60
2023-04-19T10:59:02.181Z,1.65
2023-04-19T11:01:45.316Z,1.80
2023-04-19T11:04:31.023Z,1.57
2023-04-19T11:07:05.405Z,1.57
2023-04-19T11:09:42.129Z,1.77
2023-04-19T11:12:11.976Z,1.87
2023-04-19T11:14:42.677Z,1.80
2023-04-19T11:17:17.376Z,1.80
2023-04-19T11:20:08.405Z,1.50
2023-04-19T11:22:37.189Z,1.60
2023-04-19T11:25:06.564Z,1.50
2023-04-19T11:27:34.332Z,1.60
2023-04-19T11:49:56.490Z,1.97
2023-04-19T11:52:25.135Z,1.70
2023-04-19T11:54:54.643Z,2.00
2023-04-19T11:57:28.601Z,1.80
2023-04-19T12:00:12.173Z,1.83
2023-04-19T12:02:44.022Z,1.97
2023-04-19T12:05:12.169Z,1.73
2023-04-19T12:08:09.542Z,1.60
2023-04-19T12:10:36.291Z,1.73
2023-04-19T12:13:17.605Z,1.90
2023-04-19T12:15:45.064Z,1.80
2023-04-19T12:18:11.708Z,2.33
2023-04-19T12:20:43.561Z,2.27
2023-04-19T12:30:35.062Z,2.10
2023-04-19T12:33:01.757Z,2.00
2023-04-19T12:35:28.745Z,1.83
2023-04-19T12:37:57.413Z,1.90
2023-04-19T12:40:24.184Z,1.80
2023-04-19T12:42:51.030Z,1.77
2023-04-19T12:47:45.208Z,2.00
2023-04-19T12:50:12.379Z,1.70
2023-04-19T12:52:39.062Z,2.23
2023-04-19T12:55:06.348Z,1.93
2023-04-19T12:57:32.804Z,2.07
2023-04-19T12:59:59.502Z,1.80
2023-04-19T13:02:26.093Z,1.90
2023-04-19T13:04:52.903Z,1.93
2023-04-19T13:07:19.363Z,1.97
2023-04-19T13:12:12.353Z,1.83
2023-04-19T13:14:38.766Z,2.20
2023-04-19T13:17:05.519Z,2.20
2023-04-19T13:19:31.932Z,2.73
2023-04-19T13:21:58.438Z,2.00
2023-04-19T13:24:24.921Z,2.17
2023-04-19T13:26:51.594Z,2.30
2023-04-19T13:29:18.050Z,2.70
2023-04-19T13:31:45.163Z,2.43
2023-04-19T13:34:11.691Z,2.60
2023-04-19T13:36:48.870Z,2.70
2023-04-19T13:39:15.875Z,2.07
2023-04-19T13:41:42.316Z,2.50
2023-04-19T13:44:08.827Z,2.23
2023-04-19T13:46:35.316Z,2.00
2023-04-19T13:49:01.862Z,2.50
2023-04-19T13:51:38.761Z,2.40
2023-04-19T13:54:13.728Z,2.20
2023-04-19T13:56:40.423Z,2.67
2023-04-19T13:59:07.091Z,2.50
2023-04-19T14:01:33.716Z,2.53
2023-04-19T14:04:00.309Z,2.50
2023-04-19T14:06:26.859Z,2.80
2023-04-19T14:08:53.464Z,2.63
2023-04-19T14:11:20.668Z,2.70
2023-04-19T14:13:48.288Z,3.10
2023-04-19T14:16:14.879Z,2.90
2023-04-19T14:18:41.569Z,2.70
2023-04-19T14:21:08.021Z,2.93
2023-04-19T14:23:34.701Z,3.00
2023-04-19T14:26:01.419Z,2.43
2023-04-19T14:28:27.788Z,2.37
2023-04-19T14:30:54.221Z,2.63
2023-04-19T14:33:20.871Z,1.77
2023-04-19T14:35:47.381Z,2.90
2023-04-19T14:38:13.868Z,2.20
2023-04-19T14:40:40.327Z,2.23
2023-04-19T14:43:06.759Z,2.10
2023-04-19T14:45:33.231Z,2.63
2023-04-19T14:47:59.756Z,2.77
2023-04-19T14:50:26.840Z,2.00
2023-04-19T14:52:54.632Z,2.50
2023-04-19T14:55:22.655Z,3.27
2023-04-19T14:57:49.150Z,2.70
2023-04-19T15:00:16.389Z,2.30
2023-04-19T15:02:43.011Z,2.50
2023-04-19T15:05:10.029Z,2.80
2023-04-19T15:07:36.640Z,2.60
2023-04-19T15:10:03.686Z,2.23
2023-04-19T15:12:30.114Z,2.10
2023-04-19T15:14:56.553Z,2.60
2023-04-19T15:17:23.000Z,2.60
2023-04-19T15:19:49.453Z,2.00
2023-04-19T15:22:15.869Z,2.20
2023-04-19T15:24:42.363Z,2.13
2023-04-19T15:27:09.138Z,2.27
2023-04-19T15:29:35.774Z,2.57
2023-04-19T15:32:02.820Z,2.27
2023-04-19T15:34:29.219Z,2.47
2023-04-19T15:36:55.805Z,2.20
2023-04-19T15:39:22.234Z,2.70
2023-04-19T15:41:49.320Z,2.70
2023-04-19T15:44:15.835Z,2.90
2023-04-19T15:46:42.339Z,2.00
2023-04-19T15:49:08.841Z,2.43
2023-04-19T15:51:35.258Z,2.10
2023-04-19T15:54:01.713Z,2.47
2023-04-19T15:56:28.080Z,1.60
2023-04-19T15:58:54.745Z,1.93
2023-04-19T16:01:22.841Z,2.10
2023-04-19T16:03:49.464Z,2.13
2023-04-19T16:06:16.174Z,2.07
2023-04-19T16:08:42.797Z,2.50
2023-04-19T16:11:09.370Z,2.10
2023-04-19T16:13:35.901Z,2.30
2023-04-19T16:16:02.436Z,2.60
2023-04-19T16:18:28.997Z,2.20
2023-04-19T16:20:55.878Z,1.97
2023-04-19T16:23:24.203Z,2.00
2023-04-19T16:25:50.834Z,2.23
2023-04-19T16:28:18.411Z,2.10
2023-04-19T16:30:45.915Z,1.87
2023-04-19T16:33:12.411Z,2.90
2023-04-19T16:35:39.009Z,2.27
2023-04-19T16:38:06.925Z,1.90
2023-04-19T16:40:33.344Z,2.20
2023-04-19T16:43:02.477Z,1.90
2023-04-19T16:45:29.049Z,2.40
2023-04-19T16:47:55.984Z,2.20
2023-04-19T16:50:22.418Z,2.07
2023-04-19T16:52:48.885Z,2.50
2023-04-19T16:55:15.706Z,2.10
2023-04-19T16:57:42.204Z,2.27
2023-04-19T17:00:09.880Z,1.90
2023-04-19T17:02:36.454Z,2.23
2023-04-19T17:05:03.160Z,8.67
2023-04-19T17:07:29.755Z,2.27
2023-04-19T17:09:56.446Z,2.43
2023-04-19T17:12:23.309Z,2.10
2023-04-19T17:14:50.084Z,2.33
2023-04-19T17:17:19.083Z,1.80
2023-04-19T17:19:45.697Z,2.20
2023-04-19T17:22:14.558Z,2.40
2023-04-19T17:24:41.345Z,1.90
2023-04-19T17:27:07.876Z,2.37
2023-04-19T17:29:34.454Z,2.07
2023-04-19T17:32:01.781Z,2.10
2023-04-19T17:34:28.419Z,2.20
2023-04-19T17:36:55.058Z,1.73
2023-04-19T17:39:21.628Z,2.30
2023-04-19T17:41:47.995Z,1.80
2023-04-19T17:44:14.530Z,2.50
2023-04-19T17:46:41.087Z,3.00
2023-04-19T17:49:09.086Z,1.90
2023-04-19T17:51:35.608Z,2.10
2023-04-19T17:54:02.170Z,1.70
2023-04-19T17:56:28.577Z,1.70
2023-04-19T17:58:55.165Z,2.30
2023-04-19T18:01:21.717Z,2.20
2023-04-19T18:03:51.655Z,1.97
2023-04-19T18:06:20.696Z,2.10
2023-04-19T18:08:47.380Z,1.87
2023-04-19T18:11:16.199Z,1.97
2023-04-19T18:13:42.705Z,2.10
2023-04-19T18:16:10.167Z,1.90
2023-04-19T18:18:37.063Z,2.70
2023-04-19T18:21:06.865Z,2.03
2023-04-19T18:23:33.487Z,2.07
2023-04-19T18:26:03.957Z,2.03
2023-04-19T18:28:30.576Z,2.20
2023-04-19T18:30:57.139Z,2.23
2023-04-19T18:33:23.859Z,2.10
2023-04-19T18:35:50.357Z,1.90
2023-04-19T18:38:16.978Z,1.80
2023-04-19T18:40:45.689Z,1.67
2023-04-19T18:43:12.254Z,2.37
2023-04-19T18:45:39.075Z,2.00
2023-04-19T18:48:05.760Z,2.03
2023-04-19T18:50:32.472Z,2.27
2023-04-19T18:52:59.038Z,2.10
2023-04-19T18:55:26.621Z,2.30
2023-04-19T18:57:53.112Z,2.13
2023-04-19T19:00:21.603Z,2.23
2023-04-19T19:02:48.390Z,1.80
2023-04-19T19:05:16.158Z,2.00
2023-04-19T19:07:43.101Z,2.10
2023-04-19T19:10:19.351Z,1.80
2023-04-19T19:12:49.167Z,2.10
2023-04-19T19:15:16.689Z,2.10
2023-04-19T19:17:43.694Z,2.07
2023-04-19T19:20:10.961Z,2.30
2023-04-19T19:22:37.879Z,2.10
2023-04-19T19:25:05.078Z,1.80
2023-04-19T19:27:31.535Z,2.00
2023-04-19T19:30:00.034Z,2.20
2023-04-19T19:32:26.573Z,3.17
2023-04-19T19:35:00.654Z,2.07
2023-04-19T19:37:28.853Z,2.23
2023-04-19T19:39:57.001Z,2.07
2023-04-19T19:42:24.552Z,2.50
2023-04-19T19:44:55.420Z,2.47
2023-04-19T19:47:23.168Z,2.33
2023-04-19T19:50:31.347Z,2.13
2023-04-19T19:52:36.095Z,1.63
2023-04-19T19:55:02.849Z,2.40
2023-04-19T19:58:20.614Z,2.10
2023-04-19T20:00:42.087Z,2.30
2023-04-19T20:03:06.258Z,2.30
2023-04-19T20:05:33.767Z,2.40
2023-04-19T20:08:10.127Z,1.93
2023-04-19T20:10:38.268Z,2.53
2023-04-19T20:13:06.591Z,2.33
2023-04-19T20:15:34.304Z,2.00
2023-04-19T20:18:00.812Z,2.40
2023-04-19T20:20:27.484Z,1.90
2023-04-19T20:22:54.023Z,2.30
2023-04-19T20:25:20.572Z,1.73
2023-04-19T20:27:47.025Z,2.00
2023-04-19T20:30:15.101Z,2.33
2023-04-19T20:32:42.924Z,2.57
2023-04-19T20:35:11.951Z,2.07
2023-04-19T20:37:42.081Z,1.97
2023-04-19T20:40:14.433Z,2.00
2023-04-19T20:42:41.939Z,2.40
2023-04-19T20:45:10.500Z,2.30
2023-04-19T20:47:38.334Z,2.20
2023-04-19T20:50:06.761Z,2.30
2023-04-19T20:52:33.341Z,2.03
2023-04-19T20:55:00.025Z,2.40
2023-04-19T20:57:26.568Z,1.90
2023-04-19T20:59:53.041Z,2.27
2023-04-19T21:02:19.637Z,1.90
2023-04-19T21:04:46.058Z,2.13
2023-04-19T21:07:12.460Z,2.90
2023-04-19T21:09:39.194Z,1.97
2023-04-19T21:12:05.675Z,1.80
2023-04-19T21:14:35.178Z,1.90
2023-04-19T21:17:02.553Z,2.20
2023-04-19T21:19:29.432Z,2.00
2023-04-19T21:21:56.084Z,1.90
2023-04-19T21:24:22.636Z,2.30
2023-04-19T21:26:49.059Z,2.43
2023-04-19T21:29:15.874Z,2.07
2023-04-19T21:31:42.553Z,2.10
2023-04-19T21:34:08.990Z,2.43
2023-04-19T21:36:35.449Z,2.50
2023-04-19T21:39:01.826Z,2.50
2023-04-19T21:41:28.248Z,2.27
2023-04-19T21:43:54.717Z,2.53
2023-04-19T21:46:21.278Z,1.67
2023-04-19T21:48:47.768Z,1.80
2023-04-19T21:51:14.176Z,2.10
2023-04-19T21:53:40.740Z,2.27
2023-04-19T21:56:08.454Z,2.33
2023-04-19T21:58:34.946Z,2.60
2023-04-19T22:01:01.375Z,2.63
2023-04-19T22:03:28.126Z,2.30
2023-04-19T22:05:54.681Z,2.70
2023-04-19T22:08:22.055Z,2.57
2023-04-19T22:10:50.418Z,2.37
2023-04-19T22:13:17.636Z,2.37
2023-04-19T22:15:44.041Z,2.07
2023-04-19T22:18:10.495Z,3.00
2023-04-19T22:20:38.336Z,2.53
2023-04-19T22:23:04.976Z,2.70
2023-04-19T22:25:31.381Z,2.57
2023-04-19T22:27:57.836Z,2.93
2023-04-19T22:30:24.282Z,2.77
2023-04-19T22:32:51.065Z,3.00
2023-04-19T22:35:17.553Z,3.20
2023-04-19T22:37:44.015Z,2.73
2023-04-19T22:40:10.954Z,2.83
2023-04-19T22:42:37.402Z,3.07
2023-04-19T22:45:04.070Z,3.30
2023-04-19T22:47:31.309Z,2.80
2023-04-19T22:49:57.711Z,2.90
2023-04-19T22:52:24.255Z,2.97
2023-04-19T22:54:50.764Z,2.73
2023-04-19T22:57:17.150Z,3.07
2023-04-19T22:59:43.557Z,3.00
2023-04-19T23:02:10.520Z,3.03
2023-04-19T23:04:37.900Z,2.60
2023-04-19T23:07:04.477Z,2.77
2023-04-19T23:09:30.859Z,3.17
2023-04-19T23:11:58.624Z,3.03
2023-04-19T23:14:25.049Z,2.87
2023-04-19T23:16:54.666Z,2.77
2023-04-19T23:19:22.754Z,2.83
2023-04-19T23:21:50.025Z,2.77
2023-04-19T23:24:17.408Z,2.50
2023-04-19T23:26:43.936Z,3.00
2023-04-19T23:29:10.522Z,2.57
2023-04-19T23:31:37.106Z,2.60
2023-04-19T23:34:03.584Z,2.90
2023-04-19T23:36:30.051Z,2.30
2023-04-19T23:38:56.551Z,3.20
2023-04-19T23:41:22.949Z,3.00
2023-04-19T23:43:49.499Z,3.00
2023-04-19T23:46:15.929Z,3.27
2023-04-19T23:48:42.438Z,3.00
2023-04-19T23:51:08.943Z,3.03
2023-04-19T23:53:35.955Z,3.00
2023-04-19T23:56:02.329Z,2.50
2023-04-19T23:58:28.792Z,3.17
